X  Lukk Metar værinformasjon om luftfart     EDDK Cologne Bonn Airport
Temperatur
5°C Temperatur
4°C Duggpunkt
93% Luftfuktighet



Vind
13 KM/T
8 MPT
4 M/S
7 KNP



320°
NV
Nåværende forhold

For det meste Overskyet For det meste Overskyet
Trykk 1009.82 (hPa) - 29.82 (inHg)
Sikt 6 (mil) - 9.7 (km)
Flyplass
Flyplass-kode EDDK

Plassering: Cologne Bonn Airport
Avstand: 56 (km)

Metar:
EDDK 170220Z AUTO 32007KT 9999 BKN012 05/04 Q1010 TEMPO BKN008

Tid: 2024-04-17 04:20 CEST